Boston, Massachusetts
Traffic Map
Current Weather Conditions
Boston, Massachusetts
Overcast
Overcast
20°
Feels Like: 11°
Wind Chill: 11° Ceiling: 9000
Heat Index: 20° Visibility: 10mi
Dew Point: 10° Wind: 7mph
Humidity: 65% Direction: 360° (N)
Pressure: 30.01in Gusts: 0mph
Raw Report DataKBOS 262254Z 36006KT 10SM FEW025 BKN090 OVC240 M07/M12 A3001 RMK AO2 SLP162 T10671122
Traffic Incident Summary
Active as of:
Severity:
Category:
InformationThere was an issue retrieving the traffic information for this location. Please try a different location or try again shortly.
Advertisements
Track Severe Weather on mobile